createdAt,value
2023-03-17T00:01:16.334Z,100267.41
2023-03-17T00:03:45.549Z,100265.72
2023-03-17T00:06:16.656Z,100263.13
2023-03-17T00:08:45.725Z,100262.28
2023-03-17T00:11:14.945Z,100264.94
2023-03-17T00:13:42.154Z,100257.94
2023-03-17T00:16:16.664Z,100266.72
2023-03-17T00:18:43.742Z,100263.25
2023-03-17T00:21:14.654Z,100255.41
2023-03-17T00:23:49.613Z,100258.97
2023-03-17T00:26:16.311Z,100258.09
2023-03-17T00:28:43.350Z,100242.38
2023-03-17T00:31:22.211Z,100252.00
2023-03-17T00:33:52.183Z,100250.22
2023-03-17T00:36:24.066Z,100254.59
2023-03-17T00:38:52.572Z,100249.34
2023-03-17T00:41:19.180Z,100256.38
2023-03-17T00:43:46.591Z,100251.97
2023-03-17T00:46:16.588Z,100242.28
2023-03-17T00:48:45.236Z,100240.53
2023-03-17T00:51:12.894Z,100238.72
2023-03-17T00:53:39.804Z,100236.03
2023-03-17T00:56:13.381Z,100228.06
2023-03-17T00:58:41.565Z,100217.44
2023-03-17T01:01:09.894Z,100214.75
2023-03-17T01:03:36.630Z,100217.25
2023-03-17T01:06:04.844Z,100224.13
2023-03-17T01:08:32.204Z,100218.78
2023-03-17T01:10:59.532Z,100223.97
2023-03-17T01:13:26.317Z,100223.94
2023-03-17T01:15:55.752Z,100217.78
2023-03-17T01:18:23.116Z,100219.47
2023-03-17T01:20:50.663Z,100221.16
2023-03-17T01:23:18.334Z,100209.81
2023-03-17T01:25:45.506Z,100193.94
2023-03-17T01:28:14.850Z,100211.41
2023-03-17T01:30:41.384Z,100212.25
2023-03-17T01:33:10.480Z,100204.31
2023-03-17T01:35:38.440Z,100200.78
2023-03-17T01:38:06.012Z,100206.03
2023-03-17T01:40:35.766Z,100199.84
2023-03-17T01:43:17.534Z,100191.03
2023-03-17T01:46:21.530Z,100193.66
2023-03-17T01:49:10.320Z,100196.25
2023-03-17T01:52:02.618Z,100200.63
2023-03-17T01:54:38.237Z,100192.72
2023-03-17T01:57:23.347Z,100184.81
2023-03-17T01:59:54.395Z,100193.50
2023-03-17T02:02:25.951Z,100204.88
2023-03-17T02:04:53.112Z,100209.19
2023-03-17T02:07:22.149Z,100209.13
2023-03-17T02:09:49.554Z,100203.88
2023-03-17T02:12:22.536Z,100211.75
2023-03-17T02:14:49.649Z,100202.09
2023-03-17T02:17:16.206Z,100200.31
2023-03-17T02:19:42.805Z,100204.66
2023-03-17T02:22:09.422Z,100194.13
2023-03-17T02:24:40.558Z,100192.25
2023-03-17T02:27:14.687Z,100194.00
2023-03-17T02:29:42.031Z,100182.56
2023-03-17T02:32:10.000Z,100186.88
2023-03-17T02:34:37.300Z,100176.34
2023-03-17T02:37:04.605Z,100184.19
2023-03-17T02:39:33.059Z,100198.19
2023-03-17T02:41:59.870Z,100197.25
2023-03-17T02:44:27.015Z,100198.94
2023-03-17T02:46:54.845Z,100192.78
2023-03-17T02:49:22.173Z,100189.25
2023-03-17T02:51:48.645Z,100177.88
2023-03-17T02:54:15.428Z,100165.50
2023-03-17T02:56:41.957Z,100156.72
2023-03-17T02:59:08.764Z,100147.00
2023-03-17T03:01:35.551Z,100139.97
2023-03-17T03:04:02.511Z,100154.78
2023-03-17T03:06:31.678Z,100159.09
2023-03-17T03:08:58.656Z,100164.28
2023-03-17T03:11:25.535Z,100164.16
2023-03-17T03:13:52.192Z,100176.31
2023-03-17T03:16:18.695Z,100185.00
2023-03-17T03:18:45.797Z,100184.91
2023-03-17T03:21:12.427Z,100183.00
2023-03-17T03:23:38.973Z,100193.38
2023-03-17T03:26:05.645Z,100198.44
2023-03-17T03:28:32.335Z,100187.78
2023-03-17T03:30:58.870Z,100189.50
2023-03-17T03:33:25.780Z,100195.56
2023-03-17T03:35:52.694Z,100194.66
2023-03-17T03:38:19.222Z,100199.06
2023-03-17T03:40:45.968Z,100200.78
2023-03-17T03:43:22.988Z,100196.41
2023-03-17T03:45:50.430Z,100192.94
2023-03-17T03:48:16.957Z,100201.72
2023-03-17T03:50:43.756Z,100187.72
2023-03-17T03:53:10.231Z,100177.22
2023-03-17T03:55:37.106Z,100191.19
2023-03-17T03:58:03.592Z,100187.63
2023-03-17T04:00:30.237Z,100184.91
2023-03-17T04:02:56.846Z,100184.88
2023-03-17T04:05:23.599Z,100180.44
2023-03-17T04:07:50.033Z,100180.34
2023-03-17T04:10:17.026Z,100168.88
2023-03-17T04:12:43.589Z,100175.81
2023-03-17T04:15:14.011Z,100167.06
2023-03-17T04:17:41.201Z,100173.09
2023-03-17T04:20:08.889Z,100165.06
2023-03-17T04:22:35.427Z,100156.25
2023-03-17T04:25:03.108Z,100166.59
2023-03-17T04:27:29.557Z,100161.22
2023-03-17T04:29:56.008Z,100162.00
2023-03-17T04:32:22.464Z,100156.63
2023-03-17T04:34:48.915Z,100159.94
2023-03-17T04:37:15.653Z,100154.53
2023-03-17T04:39:42.206Z,100147.44
2023-03-17T04:42:08.957Z,100142.06
2023-03-17T04:44:36.610Z,100134.19
2023-03-17T04:47:03.232Z,100122.78
2023-03-17T04:49:29.799Z,100116.56
2023-03-17T04:51:56.259Z,100106.88
2023-03-17T04:54:22.948Z,100103.31
2023-03-17T04:56:49.410Z,100111.03
2023-03-17T04:59:16.263Z,100104.78
2023-03-17T05:01:42.698Z,100092.44
2023-03-17T05:04:11.135Z,100093.28
2023-03-17T05:06:39.687Z,100108.00
2023-03-17T05:09:06.247Z,100105.22
2023-03-17T05:11:32.761Z,100112.13
2023-03-17T05:13:59.489Z,100115.63
2023-03-17T05:16:26.065Z,100112.91
2023-03-17T05:18:52.585Z,100106.75
2023-03-17T05:21:19.024Z,100109.28
2023-03-17T05:23:45.474Z,100104.91
2023-03-17T05:26:11.992Z,100110.06
2023-03-17T05:28:38.434Z,100112.63
2023-03-17T05:31:05.299Z,100111.72
2023-03-17T05:33:31.790Z,100102.97
2023-03-17T05:35:58.393Z,100103.88
2023-03-17T05:38:25.093Z,100119.59
2023-03-17T05:40:52.678Z,100114.38
2023-03-17T05:43:19.493Z,100114.38
2023-03-17T05:45:47.282Z,100111.00
2023-03-17T05:48:13.801Z,100117.06
2023-03-17T05:50:41.683Z,100121.47
2023-03-17T05:53:08.569Z,100114.50
2023-03-17T05:55:35.241Z,100106.78
2023-03-17T05:58:04.366Z,100108.66
2023-03-17T06:00:31.555Z,100098.31
2023-03-17T06:02:58.428Z,100110.75
2023-03-17T06:05:24.941Z,100117.06
2023-03-17T06:07:55.769Z,100119.03
2023-03-17T06:10:24.119Z,100116.53
2023-03-17T06:12:50.922Z,100107.00
2023-03-17T06:15:17.492Z,100105.41
2023-03-17T06:17:44.590Z,100102.09
2023-03-17T06:20:11.941Z,100100.53
2023-03-17T06:22:44.070Z,100092.91
2023-03-17T06:25:15.586Z,100092.22
2023-03-17T06:27:42.632Z,100081.84
2023-03-17T06:30:10.168Z,100088.91
2023-03-17T06:32:36.675Z,100088.06
2023-03-17T06:35:05.261Z,100075.00
2023-03-17T06:37:31.840Z,100088.22
2023-03-17T06:39:58.415Z,100095.22
2023-03-17T06:42:24.880Z,100108.41
2023-03-17T06:44:52.621Z,100103.25
2023-03-17T06:47:19.686Z,100109.38
2023-03-17T06:49:46.497Z,100114.66
2023-03-17T06:52:13.500Z,100110.34
2023-03-17T06:54:41.288Z,100103.50
2023-03-17T06:57:07.994Z,100103.56
2023-03-17T06:59:34.499Z,100091.41
2023-03-17T07:02:01.444Z,100093.28
2023-03-17T07:04:33.130Z,100085.63
2023-03-17T07:07:02.597Z,100088.53
2023-03-17T07:09:29.578Z,100094.03
2023-03-17T07:11:58.215Z,100094.25
2023-03-17T07:14:25.636Z,100109.44
2023-03-17T07:16:52.188Z,100105.28
2023-03-17T07:19:18.800Z,100108.06
2023-03-17T07:21:47.029Z,100102.06
2023-03-17T07:24:13.645Z,100093.47
2023-03-17T07:26:40.192Z,100091.00
2023-03-17T07:29:06.631Z,100085.84
2023-03-17T07:31:33.117Z,100091.25
2023-03-17T07:33:59.574Z,100088.78
2023-03-17T07:36:26.223Z,100094.13
2023-03-17T07:38:52.692Z,100081.16
2023-03-17T07:41:22.202Z,100084.78
2023-03-17T07:43:48.682Z,100084.94
2023-03-17T07:46:15.210Z,100091.25
2023-03-17T07:48:43.325Z,100086.13
2023-03-17T07:51:15.519Z,100082.00
2023-03-17T07:53:42.626Z,100084.84
2023-03-17T07:56:09.394Z,100085.09
2023-03-17T07:58:35.969Z,100074.84
2023-03-17T08:01:03.390Z,100082.09
2023-03-17T08:03:32.830Z,100078.78
2023-03-17T08:06:00.661Z,100073.66
2023-03-17T08:08:29.309Z,100070.31
2023-03-17T08:11:03.522Z,100079.31
2023-03-17T08:13:31.390Z,100073.38
2023-03-17T08:15:58.200Z,100072.72
2023-03-17T08:18:24.974Z,100077.38
2023-03-17T08:20:52.158Z,100073.28
2023-03-17T08:23:20.390Z,100063.81
2023-03-17T08:25:47.870Z,100061.38
2023-03-17T08:28:15.279Z,100067.69
2023-03-17T08:30:43.017Z,100055.56
2023-03-17T08:33:09.851Z,100064.50
2023-03-17T08:35:39.767Z,100057.63
2023-03-17T08:38:06.434Z,100052.47
2023-03-17T08:40:33.152Z,100053.47
2023-03-17T08:42:59.776Z,100053.59
2023-03-17T08:45:26.623Z,100059.88
2023-03-17T08:47:53.448Z,100057.34
2023-03-17T08:50:23.334Z,100059.16
2023-03-17T08:52:51.719Z,100061.06
2023-03-17T08:55:19.390Z,100067.25
2023-03-17T08:57:45.935Z,100059.41
2023-03-17T09:00:15.324Z,100058.56
2023-03-17T09:02:43.172Z,100065.69
2023-03-17T09:05:12.761Z,100062.19
2023-03-17T09:07:40.076Z,100071.06
2023-03-17T09:10:14.823Z,100068.47
2023-03-17T09:12:41.538Z,100064.97
2023-03-17T09:15:08.716Z,100065.00
2023-03-17T09:17:35.179Z,100055.31
2023-03-17T09:20:01.790Z,100057.97
2023-03-17T09:22:28.291Z,100051.81
2023-03-17T09:24:54.717Z,100045.63
2023-03-17T09:27:21.289Z,100057.09
2023-03-17T09:29:47.757Z,100055.34
2023-03-17T09:32:15.303Z,100063.28
2023-03-17T09:34:41.992Z,100050.94
2023-03-17T09:37:09.749Z,100057.13
2023-03-17T09:39:36.449Z,100049.16
2023-03-17T09:42:08.711Z,100043.00
2023-03-17T09:44:35.186Z,100039.47
2023-03-17T09:47:27.894Z,100035.94
2023-03-17T09:50:12.800Z,100025.34
2023-03-17T09:52:39.356Z,100017.41
2023-03-17T09:55:11.818Z,100026.25
2023-03-17T09:57:40.460Z,100018.31
2023-03-17T10:00:20.744Z,100016.53
2023-03-17T10:02:47.297Z,100021.81
2023-03-17T10:05:20.505Z,100021.78
2023-03-17T10:07:57.077Z,100024.41
2023-03-17T10:10:42.396Z,100019.09
2023-03-17T10:13:34.799Z,100019.06
2023-03-17T10:16:07.617Z,100020.78
2023-03-17T10:18:45.111Z,100016.31
2023-03-17T10:21:17.929Z,100018.91
2023-03-17T10:23:45.593Z,100023.28
2023-03-17T10:26:39.822Z,100025.88
2023-03-17T10:29:14.816Z,100018.78
2023-03-17T10:31:41.397Z,100025.78
2023-03-17T10:34:21.325Z,100022.19
2023-03-17T10:36:51.408Z,100014.13
2023-03-17T10:39:21.117Z,100011.41
2023-03-17T10:41:56.980Z,100003.38
2023-03-17T10:44:40.435Z,100007.72
2023-03-17T10:47:21.664Z,100005.78
2023-03-17T10:49:48.235Z,100006.53
2023-03-17T10:52:28.125Z,100007.31
2023-03-17T10:54:54.853Z,100008.06
2023-03-17T10:57:22.127Z,100010.66
2023-03-17T10:59:53.690Z,100006.09
2023-03-17T11:02:25.804Z,100005.00
2023-03-17T11:05:01.198Z,99992.47
2023-03-17T11:07:34.881Z,99992.34
2023-03-17T11:10:03.074Z,99996.66
2023-03-17T11:12:40.144Z,99992.16
2023-03-17T11:15:13.062Z,99984.06
2023-03-17T11:18:12.678Z,99994.56
2023-03-17T11:21:01.761Z,100003.31
2023-03-17T11:23:47.305Z,100008.53
2023-03-17T11:26:47.611Z,99999.56
2023-03-17T11:29:35.808Z,99995.06
2023-03-17T11:32:11.531Z,99995.97
2023-03-17T11:34:56.844Z,99990.63
2023-03-17T11:37:34.089Z,99990.56
2023-03-17T11:40:18.386Z,99991.38
2023-03-17T11:43:03.494Z,99998.53
2023-03-17T11:45:54.574Z,99994.94
2023-03-17T11:48:38.190Z,99992.25
2023-03-17T11:51:27.437Z,99988.66
2023-03-17T11:54:08.087Z,99985.09
2023-03-17T11:56:48.648Z,99975.28
2023-03-17T11:59:28.799Z,99978.78
2023-03-17T12:02:15.143Z,99968.09
2023-03-17T12:04:57.253Z,99963.63
2023-03-17T12:07:48.231Z,99963.47
2023-03-17T12:10:28.525Z,99967.75
2023-03-17T12:13:07.242Z,99957.81
2023-03-17T12:15:48.409Z,99961.28
2023-03-17T12:18:21.022Z,99963.81
2023-03-17T12:21:00.102Z,99966.31
2023-03-17T12:23:56.944Z,99971.56
2023-03-17T12:26:37.113Z,99962.63
2023-03-17T12:29:16.616Z,99957.09
2023-03-17T12:31:48.940Z,99953.41
2023-03-17T12:34:25.795Z,99951.31
2023-03-17T12:36:52.849Z,99944.91
2023-03-17T12:39:27.168Z,99942.03
2023-03-17T12:41:59.791Z,99941.81
2023-03-17T12:45:04.460Z,99935.22
2023-03-17T12:47:46.489Z,99933.88
2023-03-17T12:50:27.136Z,99933.53
2023-03-17T12:53:12.379Z,99926.09
2023-03-17T12:55:39.223Z,99938.34
2023-03-17T12:58:35.672Z,99937.19
2023-03-17T13:01:25.734Z,99938.69
2023-03-17T13:04:13.332Z,99941.00
2023-03-17T13:06:46.159Z,99935.22
2023-03-17T13:09:31.837Z,99924.22
2023-03-17T13:12:00.187Z,99924.84
2023-03-17T13:14:39.022Z,99918.38
2023-03-17T13:17:28.829Z,99924.50
2023-03-17T13:20:07.586Z,99916.28
2023-03-17T13:23:00.474Z,99915.28
2023-03-17T13:25:48.250Z,99916.88
2023-03-17T13:28:23.008Z,99908.69
2023-03-17T13:31:16.534Z,99911.25
2023-03-17T13:33:52.087Z,99918.19
2023-03-17T13:36:55.980Z,99917.06
2023-03-17T13:39:37.895Z,99907.00
2023-03-17T13:42:23.251Z,99919.28
2023-03-17T13:45:33.973Z,99911.97
2023-03-17T13:48:37.847Z,99910.91
2023-03-17T13:51:25.763Z,99907.34
2023-03-17T13:53:56.943Z,99902.94
2023-03-17T13:56:48.243Z,99904.78
2023-03-17T13:59:19.987Z,99903.03
2023-03-17T14:02:01.311Z,99899.53
2023-03-17T14:04:35.427Z,99895.03
2023-03-17T14:07:06.911Z,99899.59
2023-03-17T14:09:37.762Z,99903.22
2023-03-17T14:12:12.997Z,99905.06
2023-03-17T14:15:21.513Z,99897.97
2023-03-17T14:17:53.471Z,99884.69
2023-03-17T14:20:26.054Z,99888.31
2023-03-17T14:22:59.939Z,99884.03
2023-03-17T14:25:32.917Z,99881.50
2023-03-17T14:28:00.165Z,99880.84
2023-03-17T14:30:29.589Z,99881.91
2023-03-17T14:33:11.944Z,99878.50
2023-03-17T14:35:42.935Z,99878.56
2023-03-17T14:38:23.953Z,99884.84
2023-03-17T14:40:59.338Z,99876.06
2023-03-17T14:43:27.181Z,99874.38
2023-03-17T14:46:02.889Z,99877.09
2023-03-17T14:48:35.427Z,99869.97
2023-03-17T14:51:06.619Z,99873.59
2023-03-17T14:53:41.337Z,99865.69
2023-03-17T14:56:07.948Z,99870.25
2023-03-17T14:58:41.509Z,99873.97
2023-03-17T15:01:36.564Z,99850.94
2023-03-17T15:04:25.678Z,99851.94
2023-03-17T15:06:55.300Z,99852.09
2023-03-17T15:09:27.857Z,99845.16
2023-03-17T15:11:58.141Z,99847.09
2023-03-17T15:14:29.813Z,99855.25
2023-03-17T15:16:56.641Z,99849.09
2023-03-17T15:19:29.708Z,99849.09
2023-03-17T15:21:59.897Z,99850.03
2023-03-17T15:24:40.627Z,99857.28
2023-03-17T15:27:17.062Z,99851.13
2023-03-17T15:29:44.122Z,99838.69
2023-03-17T15:32:38.106Z,99841.47
2023-03-17T15:35:06.292Z,99838.06
2023-03-17T15:37:34.667Z,99841.72
2023-03-17T15:40:03.294Z,99839.19
2023-03-17T15:42:36.356Z,99834.84
2023-03-17T15:45:04.089Z,99826.03
2023-03-17T15:47:36.728Z,99819.91
2023-03-17T15:50:16.332Z,99816.47
2023-03-17T15:52:43.884Z,99811.28
2023-03-17T15:55:20.879Z,99813.19
2023-03-17T15:57:54.816Z,99826.66
2023-03-17T16:00:24.126Z,99837.50
2023-03-17T16:02:57.258Z,99829.63
2023-03-17T16:05:33.463Z,99836.88
2023-03-17T16:07:59.932Z,99827.31
2023-03-17T16:10:29.748Z,99831.03
2023-03-17T16:12:56.669Z,99830.28
2023-03-17T16:15:26.125Z,99832.25
2023-03-17T16:17:55.582Z,99827.03
2023-03-17T16:20:26.980Z,99827.22
2023-03-17T16:22:57.058Z,99823.88
2023-03-17T16:25:29.436Z,99833.78
2023-03-17T16:27:58.947Z,99828.63
2023-03-17T16:30:28.946Z,99838.56
2023-03-17T16:33:02.080Z,99835.19
2023-03-17T16:35:28.697Z,99833.63
2023-03-17T16:37:55.524Z,99832.00
2023-03-17T16:40:25.073Z,99823.25
2023-03-17T16:42:52.316Z,99832.31
2023-03-17T16:45:27.987Z,99828.00
2023-03-17T16:47:55.861Z,99829.97
2023-03-17T16:50:26.666Z,99826.59
2023-03-17T16:52:53.141Z,99822.31
2023-03-17T16:55:21.496Z,99822.50
2023-03-17T16:57:50.771Z,99827.97
2023-03-17T17:00:23.544Z,99834.31
2023-03-17T17:02:50.099Z,99822.03
2023-03-17T17:05:20.044Z,99822.19
2023-03-17T17:07:47.889Z,99824.13
2023-03-17T17:10:18.634Z,99827.81
2023-03-17T17:12:46.032Z,99830.56
2023-03-17T17:15:14.483Z,99838.69
2023-03-17T17:17:43.946Z,99831.72
2023-03-17T17:20:21.428Z,99837.19
2023-03-17T17:22:48.792Z,99828.44
2023-03-17T17:25:16.374Z,99824.09
2023-03-17T17:27:44.846Z,99828.66
2023-03-17T17:30:17.156Z,99826.06
2023-03-17T17:32:45.104Z,99826.16
2023-03-17T17:35:13.033Z,99839.53
2023-03-17T17:37:39.611Z,99831.56
2023-03-17T17:40:08.728Z,99828.09
2023-03-17T17:42:35.441Z,99823.69
2023-03-17T17:45:02.382Z,99829.09
2023-03-17T17:47:32.197Z,99831.81
2023-03-17T17:49:59.339Z,99829.19
2023-03-17T17:52:26.436Z,99834.56
2023-03-17T17:54:52.899Z,99832.00
2023-03-17T17:57:19.683Z,99834.72
2023-03-17T17:59:46.262Z,99837.47
2023-03-17T18:02:13.160Z,99848.16
2023-03-17T18:04:39.881Z,99857.97
2023-03-17T18:07:06.366Z,99864.22
2023-03-17T18:09:32.981Z,99855.38
2023-03-17T18:11:59.515Z,99870.50
2023-03-17T18:14:26.606Z,99875.84
2023-03-17T18:16:53.643Z,99875.84
2023-03-17T18:19:20.498Z,99870.56
2023-03-17T18:21:47.026Z,99885.66
2023-03-17T18:24:14.584Z,99876.84
2023-03-17T18:26:41.632Z,99879.53
2023-03-17T18:29:09.202Z,99879.59
2023-03-17T18:31:49.037Z,99881.41
2023-03-17T18:34:27.038Z,99895.56
2023-03-17T18:36:57.629Z,99886.75
2023-03-17T18:39:24.221Z,99887.69
2023-03-17T18:41:50.956Z,99898.31
2023-03-17T18:44:18.892Z,99890.38
2023-03-17T18:46:45.467Z,99889.50
2023-03-17T18:49:12.024Z,99887.75
2023-03-17T18:51:38.669Z,99876.28
2023-03-17T18:54:06.055Z,99880.72
2023-03-17T18:56:32.609Z,99878.09
2023-03-17T18:58:59.832Z,99875.41
2023-03-17T19:01:27.137Z,99869.25
2023-03-17T19:03:54.042Z,99860.41
2023-03-17T19:06:22.089Z,99870.16
2023-03-17T19:08:48.604Z,99859.59
2023-03-17T19:11:18.377Z,99865.78
2023-03-17T19:13:45.580Z,99853.41
2023-03-17T19:16:12.494Z,99857.00
2023-03-17T19:18:41.891Z,99849.94
2023-03-17T19:21:09.597Z,99854.41
2023-03-17T19:23:38.157Z,99848.25
2023-03-17T19:26:05.953Z,99840.31
2023-03-17T19:28:32.897Z,99835.94
2023-03-17T19:30:59.614Z,99830.63
2023-03-17T19:33:26.149Z,99834.19
2023-03-17T19:35:58.557Z,99831.53
2023-03-17T19:38:27.079Z,99820.06
2023-03-17T19:40:53.700Z,99828.91
2023-03-17T19:43:39.024Z,99822.75
2023-03-17T19:46:07.862Z,99825.41
2023-03-17T19:48:35.567Z,99821.91
2023-03-17T19:51:02.207Z,99821.03
2023-03-17T19:53:28.854Z,99812.19
2023-03-17T19:55:56.769Z,99825.44
2023-03-17T19:58:23.192Z,99821.91
2023-03-17T20:00:49.643Z,99828.97
2023-03-17T20:03:16.556Z,99822.75
2023-03-17T20:05:45.750Z,99822.78
2023-03-17T20:08:12.280Z,99815.69
2023-03-17T20:10:39.215Z,99815.69
2023-03-17T20:13:06.393Z,99829.81
2023-03-17T20:15:34.493Z,99835.13
2023-03-17T20:18:01.009Z,99829.81
2023-03-17T20:20:27.765Z,99828.94
2023-03-17T20:22:54.243Z,99831.59
2023-03-17T20:25:21.790Z,99832.47
2023-03-17T20:27:48.406Z,99832.47
2023-03-17T20:30:15.279Z,99838.63
2023-03-17T20:32:41.928Z,99842.16
2023-03-17T20:35:08.945Z,99838.63
2023-03-17T20:37:35.862Z,99833.28
2023-03-17T20:40:05.093Z,99832.41
2023-03-17T20:42:31.554Z,99832.41
2023-03-17T20:44:58.080Z,99837.69
2023-03-17T20:47:24.848Z,99833.25
2023-03-17T20:49:53.098Z,99835.91
2023-03-17T20:52:19.818Z,99843.03
2023-03-17T20:54:46.764Z,99837.72
2023-03-17T20:57:16.053Z,99837.72
2023-03-17T20:59:43.759Z,99837.72
2023-03-17T21:02:14.389Z,99835.09
2023-03-17T21:04:42.814Z,99837.75
2023-03-17T21:07:09.502Z,99837.78
2023-03-17T21:09:36.517Z,99848.38
2023-03-17T21:12:02.968Z,99841.31
2023-03-17T21:14:29.506Z,99844.00
2023-03-17T21:16:57.772Z,99837.78
2023-03-17T21:19:24.514Z,99832.50
2023-03-17T21:21:50.935Z,99828.06
2023-03-17T21:24:26.689Z,99824.53
2023-03-17T21:26:53.388Z,99829.84
2023-03-17T21:29:20.902Z,99821.03
2023-03-17T21:31:47.583Z,99819.28
2023-03-17T21:34:14.094Z,99817.50
2023-03-17T21:36:40.565Z,99826.34
2023-03-17T21:39:07.208Z,99819.28
2023-03-17T21:41:36.386Z,99825.47
2023-03-17T21:44:03.667Z,99814.88
2023-03-17T21:46:31.905Z,99824.59
2023-03-17T21:48:58.817Z,99822.84
2023-03-17T21:51:26.132Z,99825.50
2023-03-17T21:53:53.796Z,99818.41
2023-03-17T21:56:21.027Z,99820.22
2023-03-17T21:58:49.087Z,99817.56
2023-03-17T22:01:17.534Z,99820.22
2023-03-17T22:03:44.533Z,99812.25
2023-03-17T22:06:13.190Z,99808.69
2023-03-17T22:08:39.707Z,99822.84
2023-03-17T22:11:10.790Z,99818.44
2023-03-17T22:13:37.734Z,99815.78
2023-03-17T22:16:05.079Z,99816.66
2023-03-17T22:18:32.537Z,99803.41
2023-03-17T22:20:59.730Z,99811.38
2023-03-17T22:23:26.499Z,99812.28
2023-03-17T22:25:53.256Z,99805.19
2023-03-17T22:28:19.858Z,99815.81
2023-03-17T22:30:46.443Z,99816.72
2023-03-17T22:33:13.604Z,99812.31
2023-03-17T22:35:41.191Z,99817.59
2023-03-17T22:38:08.721Z,99818.47
2023-03-17T22:40:36.232Z,99818.50
2023-03-17T22:43:03.377Z,99831.75
2023-03-17T22:45:30.147Z,99822.03
2023-03-17T22:47:56.606Z,99827.34
2023-03-17T22:50:23.964Z,99822.97
2023-03-17T22:52:50.756Z,99822.97
2023-03-17T22:55:17.402Z,99828.31
2023-03-17T22:57:44.046Z,99827.41
2023-03-17T23:00:16.359Z,99827.44
2023-03-17T23:02:46.505Z,99825.69
2023-03-17T23:05:13.599Z,99834.56
2023-03-17T23:07:50.333Z,99823.06
2023-03-17T23:10:23.027Z,99840.75
2023-03-17T23:12:50.835Z,99834.56
2023-03-17T23:15:18.775Z,99843.41
2023-03-17T23:17:46.793Z,99841.66
2023-03-17T23:20:15.116Z,99833.75
2023-03-17T23:22:41.583Z,99839.03
2023-03-17T23:25:08.602Z,99846.09
2023-03-17T23:27:35.158Z,99838.16
2023-03-17T23:30:01.860Z,99841.69
2023-03-17T23:32:28.396Z,99839.06
2023-03-17T23:34:54.873Z,99847.00
2023-03-17T23:37:21.679Z,99847.00
2023-03-17T23:39:48.513Z,99848.75
2023-03-17T23:42:16.970Z,99845.22
2023-03-17T23:44:45.318Z,99841.72
2023-03-17T23:47:14.862Z,99842.56
2023-03-17T23:49:41.593Z,99840.81
2023-03-17T23:52:08.903Z,99838.16
2023-03-17T23:54:35.465Z,99849.66
2023-03-17T23:57:02.853Z,99846.16
2023-03-17T23:59:29.329Z,99858.50
